createdAt,value
2023-01-13T00:06:52.922Z,101064.40
2023-01-13T00:10:33.923Z,101061.52
2023-01-13T00:14:26.098Z,101056.43
2023-01-13T00:17:52.836Z,101056.67
2023-01-13T00:21:38.848Z,101051.63
2023-01-13T00:25:34.121Z,101050.05
2023-01-13T00:29:00.977Z,101051.38
2023-01-13T00:32:37.964Z,101049.65
2023-01-13T00:36:10.092Z,101048.99
2023-01-13T00:39:45.923Z,101048.50
2023-01-13T00:43:40.962Z,101043.51
2023-01-13T00:47:13.122Z,101041.84
2023-01-13T00:50:58.934Z,101036.86
2023-01-13T00:54:50.954Z,101034.65
2023-01-13T00:58:19.097Z,101032.93
2023-01-13T01:01:44.167Z,101029.53
2023-01-13T01:08:53.974Z,101030.42
2023-01-13T01:15:53.802Z,101033.72
2023-01-13T01:19:23.941Z,101035.77
2023-01-13T01:22:58.936Z,101036.05
2023-01-13T01:27:04.887Z,101026.58
2023-01-13T01:30:39.023Z,101018.30
2023-01-13T01:34:15.974Z,101023.90
2023-01-13T01:37:42.939Z,101027.66
2023-01-13T01:41:33.208Z,101028.02
2023-01-13T01:45:15.959Z,101028.58
2023-01-13T01:48:49.945Z,101032.50
2023-01-13T01:52:21.951Z,101029.65
2023-01-13T01:55:50.229Z,101033.32
2023-01-13T01:59:48.951Z,101032.15
2023-01-13T02:03:45.001Z,101033.23
2023-01-13T02:07:43.167Z,101031.41
2023-01-13T02:11:24.080Z,101027.80
2023-01-13T02:14:56.183Z,101031.33
2023-01-13T02:18:39.391Z,101031.97
2023-01-13T02:22:22.046Z,101026.52
2023-01-13T02:25:58.019Z,101032.85
2023-01-13T02:29:46.397Z,101031.28
2023-01-13T02:33:40.024Z,101032.67
2023-01-13T02:37:28.129Z,101030.63
2023-01-13T02:40:58.070Z,101028.81
2023-01-13T02:44:41.035Z,101031.52
2023-01-13T02:48:24.069Z,101030.34
2023-01-13T02:52:09.712Z,101035.08
2023-01-13T02:55:40.061Z,101026.16
2023-01-13T02:59:07.182Z,101026.64
2023-01-13T03:02:33.021Z,101029.49
2023-01-13T03:06:06.212Z,101032.38
2023-01-13T03:09:43.078Z,101031.88
2023-01-13T03:13:13.017Z,101034.85
2023-01-13T03:17:27.112Z,101031.44
2023-01-13T03:24:27.001Z,101026.83
2023-01-13T03:27:54.075Z,101022.23
2023-01-13T03:31:19.090Z,101023.78
2023-01-13T03:34:48.033Z,101024.19
2023-01-13T03:38:12.021Z,101025.57
2023-01-13T03:41:37.090Z,101025.09
2023-01-13T03:45:13.096Z,101019.99
2023-01-13T03:48:46.049Z,101020.84
2023-01-13T03:52:19.048Z,101022.52
2023-01-13T03:56:01.062Z,101029.25
2023-01-13T03:59:54.136Z,101026.20
2023-01-13T07:28:21.873Z,100939.58
2023-01-13T07:32:07.954Z,101014.64
2023-01-13T07:35:50.858Z,101023.52
2023-01-13T07:43:27.796Z,101017.76
2023-01-13T07:47:15.257Z,101013.52
2023-01-13T07:54:48.109Z,101013.18
2023-01-13T07:58:47.554Z,101012.65
2023-01-13T08:02:31.213Z,101011.71
2023-01-13T08:06:23.940Z,101010.77
2023-01-13T08:10:20.594Z,101013.99
2023-01-13T08:16:54.401Z,101015.98
2023-01-13T08:27:36.256Z,101019.10
2023-01-13T08:31:23.038Z,101023.56
2023-01-13T08:35:12.024Z,101018.80
2023-01-13T08:39:01.706Z,101018.90
2023-01-13T08:42:43.527Z,101018.10
2023-01-13T08:50:19.443Z,101020.81
2023-01-13T08:54:04.907Z,101019.61
2023-01-13T08:57:28.952Z,101018.08
2023-01-13T09:01:09.158Z,101018.30
2023-01-13T09:04:56.052Z,101019.23
2023-01-13T09:08:35.246Z,101019.92
2023-01-13T09:12:16.894Z,101019.66
2023-01-13T09:15:58.477Z,101018.81
2023-01-13T09:19:47.085Z,101011.80
2023-01-13T09:23:28.094Z,101008.44
2023-01-13T09:27:15.001Z,101006.81
2023-01-13T09:38:34.084Z,100992.31
2023-01-13T09:42:32.704Z,100987.67
2023-01-13T09:46:38.717Z,100990.17
2023-01-13T09:50:52.106Z,100990.52
2023-01-13T10:07:05.997Z,100986.20
2023-01-13T10:11:03.023Z,100984.63
2023-01-13T10:23:12.093Z,100987.97
2023-01-13T10:27:12.645Z,100983.25
2023-01-13T10:34:05.455Z,100978.11
2023-01-13T10:37:55.225Z,100980.31
2023-01-13T10:41:54.039Z,100974.60
2023-01-13T10:50:01.063Z,100974.08
2023-01-13T10:53:56.072Z,100976.36
2023-01-13T10:57:49.285Z,100972.01
2023-01-13T11:01:34.317Z,100975.71
2023-01-13T11:05:49.236Z,100975.12
2023-01-13T11:13:25.552Z,100973.05
2023-01-13T11:17:06.985Z,100971.23
2023-01-13T11:21:06.239Z,100963.69
2023-01-13T11:24:48.398Z,100966.38
2023-01-13T11:28:45.065Z,100966.50
2023-01-13T11:32:33.110Z,100962.20
2023-01-13T11:36:36.184Z,100959.52
2023-01-13T11:40:28.006Z,100969.02
2023-01-13T11:44:19.362Z,100968.29
2023-01-13T11:51:57.095Z,100973.10
2023-01-13T12:00:12.743Z,100980.58
2023-01-13T12:04:03.145Z,100977.31
2023-01-13T12:08:09.091Z,100976.38
2023-01-13T12:12:36.151Z,100975.95
2023-01-13T12:16:42.110Z,100974.91
2023-01-13T12:21:05.149Z,100981.21
2023-01-13T12:24:52.130Z,100986.46
2023-01-13T12:28:42.204Z,100993.98
2023-01-13T12:36:57.196Z,101004.70
2023-01-13T12:40:52.155Z,101010.42
2023-01-13T12:49:17.176Z,101014.48
2023-01-13T12:53:20.177Z,101014.40
2023-01-13T13:00:56.216Z,101015.88
2023-01-13T13:04:54.187Z,101016.14
2023-01-13T13:08:50.272Z,101013.23
2023-01-13T13:13:08.108Z,101008.10
2023-01-13T13:17:07.151Z,101012.82
2023-01-13T13:21:29.171Z,101022.23
2023-01-13T13:29:58.209Z,101023.76
2023-01-13T13:33:59.160Z,101023.39
2023-01-13T13:38:13.041Z,101026.75
2023-01-13T13:42:05.054Z,101028.37
2023-01-13T13:46:02.154Z,101028.20
2023-01-13T13:49:52.262Z,101025.05
2023-01-13T13:57:50.183Z,101031.33
2023-01-13T14:01:41.521Z,101032.45
2023-01-13T14:05:38.218Z,101035.81
2023-01-13T14:09:17.211Z,101040.58
2023-01-13T14:13:06.123Z,101040.98
2023-01-13T14:17:09.172Z,101038.23
2023-01-13T14:21:08.171Z,101041.73
2023-01-13T14:24:48.244Z,101043.73
2023-01-13T14:28:39.168Z,101047.49
2023-01-13T14:32:37.216Z,101053.22
2023-01-13T14:40:33.224Z,101061.11
2023-01-13T14:44:14.199Z,101065.51
2023-01-13T14:48:15.602Z,101059.16
2023-01-13T14:52:02.718Z,101058.64
2023-01-13T14:55:59.247Z,101059.65
2023-01-13T15:00:11.101Z,101061.88
2023-01-13T15:03:59.437Z,101059.48
2023-01-13T15:07:44.196Z,101058.77
2023-01-13T15:11:29.590Z,101057.45
2023-01-13T15:15:19.277Z,101062.16
2023-01-13T15:19:13.338Z,101061.97
2023-01-13T15:23:12.263Z,101064.23
2023-01-13T15:27:07.601Z,101069.58
2023-01-13T15:30:56.588Z,101073.64
2023-01-13T15:34:33.243Z,101075.20
2023-01-13T15:38:09.237Z,101077.30
2023-01-13T15:41:57.046Z,101079.63
2023-01-13T15:45:45.784Z,101070.90
2023-01-13T15:49:27.571Z,101071.85
2023-01-13T15:53:37.253Z,101073.75
2023-01-13T16:01:21.385Z,101074.69
2023-01-13T16:05:14.174Z,101074.15
2023-01-13T16:09:08.516Z,101074.54
2023-01-13T16:13:05.417Z,101073.02
2023-01-13T16:16:58.258Z,101075.23
2023-01-13T16:24:15.562Z,101082.82
2023-01-13T16:30:52.310Z,101080.28
2023-01-13T16:37:13.337Z,101078.40
2023-01-13T16:43:32.265Z,101079.86
2023-01-13T16:47:03.340Z,101080.63
2023-01-13T16:51:13.225Z,101081.90
2023-01-13T16:54:59.342Z,101077.98
2023-01-13T17:02:08.384Z,101074.38
2023-01-13T17:05:54.596Z,101072.45
2023-01-13T17:10:03.449Z,101068.69
2023-01-13T17:13:50.354Z,101069.36
2023-01-13T17:17:58.523Z,101070.56
2023-01-13T17:21:45.544Z,101064.85
2023-01-13T17:25:36.420Z,101066.52
2023-01-13T17:29:16.435Z,101064.38
2023-01-13T17:36:53.593Z,101066.98
2023-01-13T17:40:55.570Z,101064.54
2023-01-13T17:48:34.621Z,101063.33
2023-01-13T17:52:21.401Z,101062.13
2023-01-13T18:00:12.601Z,101057.84
2023-01-13T18:07:30.600Z,101061.70
2023-01-13T18:11:22.404Z,101060.27
2023-01-13T18:14:47.429Z,101057.89
2023-01-13T18:18:25.503Z,101057.51
2023-01-13T18:22:22.238Z,101063.59
2023-01-13T18:26:08.189Z,101065.61
2023-01-13T18:29:55.474Z,101060.04
2023-01-13T18:33:44.456Z,101057.80
2023-01-13T18:37:21.459Z,101057.30
2023-01-13T18:41:06.464Z,101051.51
2023-01-13T18:44:58.253Z,101049.19
2023-01-13T18:48:50.465Z,101045.14
2023-01-13T18:52:43.576Z,101046.73
2023-01-13T18:56:14.612Z,101050.83
2023-01-13T19:00:07.932Z,101047.93
2023-01-13T19:03:51.679Z,101049.79
2023-01-13T19:07:35.438Z,101049.87
2023-01-13T19:11:14.570Z,101053.52
2023-01-13T19:18:47.688Z,101055.97
2023-01-13T19:26:20.095Z,101061.02
2023-01-13T19:30:04.658Z,101064.00
2023-01-13T19:34:01.543Z,101064.47
2023-01-13T19:37:44.692Z,101058.65
2023-01-13T19:41:25.600Z,101058.45
2023-01-13T19:45:19.823Z,101056.23
2023-01-13T19:49:03.676Z,101056.70
2023-01-13T19:52:42.630Z,101059.38
2023-01-13T19:56:25.579Z,101055.55
2023-01-13T20:00:05.852Z,101056.23
2023-01-13T20:03:57.690Z,101054.06
2023-01-13T20:07:41.850Z,101053.54
2023-01-13T20:11:41.835Z,101048.52
2023-01-13T20:15:39.535Z,101042.94
2023-01-13T20:27:01.075Z,101041.54
2023-01-13T20:33:31.635Z,101035.27
2023-01-13T20:37:18.598Z,101030.35
2023-01-13T20:52:36.671Z,100977.23
2023-01-13T20:56:22.582Z,100994.27
2023-01-13T21:00:08.727Z,100998.87
2023-01-13T21:03:56.698Z,101002.94
2023-01-13T21:07:48.588Z,101009.97
2023-01-13T21:15:33.793Z,101005.02
2023-01-13T21:20:11.799Z,101005.27
2023-01-13T21:23:57.640Z,101006.25
2023-01-13T21:28:21.552Z,101003.89
2023-01-13T21:32:12.988Z,101005.50
2023-01-13T21:39:21.714Z,101006.62
2023-01-13T21:43:25.581Z,101007.45
2023-01-13T21:51:39.864Z,101002.61
2023-01-13T22:10:08.323Z,100960.50
2023-01-13T22:36:22.651Z,100990.02
2023-01-13T22:44:07.774Z,100990.44
2023-01-13T22:58:39.445Z,100982.00
2023-01-13T23:09:07.581Z,100984.14
2023-01-13T23:21:59.656Z,100960.61
2023-01-13T23:30:02.153Z,100974.13
2023-01-13T23:33:51.341Z,100978.33
